Time;durP1;ratioP1;P1;durP2;ratioP2;P2;SDS_P1;SDS_P2;PMS_P1;PMS_P2;Temp;Humidity;BMP_temperature;BMP_pressure;BME280_temperature;BME280_humidity;BME280_pressure;Samples;Min_cycle;Max_cycle;Signal;HPM_P1;HPM_P2
2024/01/25 00:02:03;;;;;;;168.53;45.13;;;9.50;94.80;;;;;;784462;181;26462;-79
2024/01/25 00:04:29;;;;;;;198.60;47.97;;;9.50;94.60;;;;;;782604;179;26420;-80
2024/01/25 00:06:55;;;;;;;101.47;17.97;;;9.50;94.50;;;;;;784373;178;26512;-78
2024/01/25 00:09:22;;;;;;;195.43;48.10;;;9.50;94.80;;;;;;784510;181;26481;-80
2024/01/25 00:11:48;;;;;;;134.70;27.43;;;9.50;94.70;;;;;;785234;181;26465;-79
2024/01/25 00:14:15;;;;;;;128.43;29.43;;;9.50;94.80;;;;;;787730;181;27178;-81
2024/01/25 00:16:42;;;;;;;101.10;20.87;;;9.50;94.80;;;;;;785352;181;26463;-80
2024/01/25 00:19:08;;;;;;;71.27;11.37;;;9.50;94.70;;;;;;785965;179;26437;-79
2024/01/25 00:21:36;;;;;;;90.70;12.73;;;9.50;94.90;;;;;;787895;181;26449;-78
2024/01/25 00:24:01;;;;;;;75.83;11.00;;;9.50;94.80;;;;;;790418;178;26420;-80
2024/01/25 00:26:28;;;;;;;76.73;12.77;;;9.50;94.80;;;;;;788402;178;26461;-81
2024/01/25 00:28:55;;;;;;;98.10;20.17;;;9.50;94.80;;;;;;789798;181;26409;-82
2024/01/25 00:31:21;;;;;;;79.73;16.43;;;9.50;94.80;;;;;;791037;178;26445;-79
2024/01/25 00:33:48;;;;;;;79.23;14.80;;;9.50;94.80;;;;;;788261;181;26397;-80
2024/01/25 00:36:15;;;;;;;102.40;17.70;;;9.50;95.20;;;;;;786763;181;26572;-83
2024/01/25 00:38:42;;;;;;;70.53;11.77;;;9.50;94.90;;;;;;786147;177;26466;-79
2024/01/25 00:41:09;;;;;;;82.93;11.33;;;9.50;95.00;;;;;;785483;181;26437;-75
2024/01/25 00:43:35;;;;;;;81.00;10.27;;;9.50;95.00;;;;;;784186;181;26484;-79
2024/01/25 00:46:02;;;;;;;71.80;11.73;;;9.50;95.20;;;;;;790215;181;26504;-78
2024/01/25 00:48:29;;;;;;;49.07;8.23;;;9.50;95.20;;;;;;791557;181;26460;-80
2024/01/25 00:50:56;;;;;;;72.50;10.53;;;9.50;94.80;;;;;;785317;181;26493;-78
2024/01/25 00:53:23;;;;;;;66.00;10.83;;;9.50;94.80;;;;;;785988;181;27037;-79
2024/01/25 00:55:50;;;;;;;71.50;11.70;;;9.50;94.90;;;;;;784598;180;26763;-80
2024/01/25 00:58:16;;;;;;;70.10;9.87;;;9.50;94.80;;;;;;787993;181;26458;-79
2024/01/25 01:00:43;;;;;;;58.27;8.90;;;9.40;95.20;;;;;;785523;179;26442;-79
2024/01/25 01:03:11;;;;;;;73.50;11.50;;;9.40;95.10;;;;;;782631;181;26466;-80
2024/01/25 01:05:37;;;;;;;83.07;10.37;;;9.40;95.20;;;;;;787094;181;26541;-78
2024/01/25 01:08:04;;;;;;;84.30;12.83;;;9.30;95.30;;;;;;787602;181;26484;-79
2024/01/25 01:10:30;;;;;;;82.77;10.70;;;9.30;95.70;;;;;;786110;181;26457;-80
2024/01/25 01:12:57;;;;;;;84.43;12.83;;;9.20;95.70;;;;;;783926;181;27029;-79
2024/01/25 01:15:23;;;;;;;60.10;9.73;;;9.20;95.80;;;;;;788018;181;26512;-79
2024/01/25 01:17:50;;;;;;;66.10;9.47;;;9.10;96.00;;;;;;782445;181;27069;-78
2024/01/25 01:20:17;;;;;;;89.40;12.87;;;9.10;95.90;;;;;;789450;181;26459;-79
2024/01/25 01:22:43;;;;;;;91.63;11.87;;;9.00;96.00;;;;;;783006;181;26441;-80
2024/01/25 01:25:10;;;;;;;75.60;11.27;;;8.90;96.30;;;;;;784523;181;26611;-78
2024/01/25 01:27:37;;;;;;;56.97;9.83;;;8.90;96.30;;;;;;785866;179;26475;-78
2024/01/25 01:30:04;;;;;;;67.60;10.13;;;8.90;96.50;;;;;;784113;181;27035;-80
2024/01/25 01:32:30;;;;;;;71.53;10.93;;;8.90;96.40;;;;;;785473;180;26449;-79
2024/01/25 01:34:57;;;;;;;74.67;11.47;;;8.90;96.60;;;;;;785772;178;26455;-81
2024/01/25 01:37:23;;;;;;;67.73;10.40;;;8.90;96.60;;;;;;784443;181;26490;-78
2024/01/25 01:39:50;;;;;;;89.20;13.47;;;8.80;96.80;;;;;;783994;181;26522;-79
2024/01/25 01:42:17;;;;;;;69.03;11.37;;;8.80;96.70;;;;;;797645;171;26975;-78
2024/01/25 01:44:43;;;;;;;63.53;11.43;;;8.70;96.70;;;;;;805565;176;26458;-79
2024/01/25 01:47:11;;;;;;;75.23;13.00;;;8.70;96.80;;;;;;807841;177;26450;-79
2024/01/25 01:49:37;;;;;;;74.77;12.90;;;8.70;96.90;;;;;;823280;170;26950;-78
2024/01/25 01:52:04;;;;;;;87.70;12.10;;;8.60;97.00;;;;;;820975;172;26472;-78
2024/01/25 01:54:31;;;;;;;77.67;12.60;;;8.60;96.90;;;;;;808644;176;26429;-78
2024/01/25 01:56:57;;;;;;;72.73;12.80;;;8.60;97.00;;;;;;808139;176;26463;-78
2024/01/25 01:59:25;;;;;;;87.70;12.73;;;8.60;97.10;;;;;;809404;176;26424;-78
2024/01/25 02:01:50;;;;;;;72.20;11.77;;;8.50;97.30;;;;;;808352;176;26455;-77
2024/01/25 02:04:17;;;;;;;74.53;12.60;;;8.60;97.10;;;;;;811157;176;26989;-77
2024/01/25 02:06:45;;;;;;;89.90;12.90;;;8.50;97.10;;;;;;809157;176;26428;-77
2024/01/25 02:09:10;;;;;;;97.47;13.77;;;8.60;97.20;;;;;;808870;176;26436;-77
2024/01/25 02:11:37;;;;;;;62.30;10.30;;;8.50;97.20;;;;;;809486;176;26425;-78
2024/01/25 02:14:03;;;;;;;70.97;10.20;;;8.40;97.40;;;;;;808266;176;26440;-77
2024/01/25 02:16:30;;;;;;;72.23;10.30;;;8.40;97.40;;;;;;807193;176;27012;-76
2024/01/25 02:18:57;;;;;;;79.80;10.57;;;8.40;98.00;;;;;;805900;178;26518;-77
2024/01/25 02:21:23;;;;;;;88.00;16.67;;;8.40;97.60;;;;;;805484;176;27069;-77
2024/01/25 02:23:51;;;;;;;91.53;16.53;;;8.30;97.70;;;;;;810301;176;26448;-78
2024/01/25 02:26:17;;;;;;;74.00;12.60;;;8.20;97.90;;;;;;788989;181;26456;-78
2024/01/25 02:28:44;;;;;;;77.07;12.37;;;8.20;98.00;;;;;;791813;181;26505;-77
2024/01/25 02:31:11;;;;;;;79.40;11.57;;;8.30;98.00;;;;;;810689;174;26442;-78
2024/01/25 02:33:37;;;;;;;82.80;11.60;;;8.30;98.00;;;;;;804289;176;26449;-78
2024/01/25 02:36:04;;;;;;;76.03;10.80;;;8.40;97.90;;;;;;790356;181;26503;-78
2024/01/25 02:38:31;;;;;;;76.87;10.63;;;8.30;98.20;;;;;;791032;178;27017;-78
2024/01/25 02:40:57;;;;;;;87.37;11.23;;;8.30;98.00;;;;;;790188;180;26485;-78
2024/01/25 02:43:24;;;;;;;92.20;12.50;;;8.30;98.20;;;;;;789709;178;26522;-79
2024/01/25 02:45:51;;;;;;;107.23;14.23;;;8.30;98.30;;;;;;810471;176;26442;-76
2024/01/25 02:48:17;;;;;;;82.87;12.07;;;8.30;98.10;;;;;;813131;176;26498;-77
2024/01/25 02:50:44;;;;;;;70.13;11.23;;;8.20;98.20;;;;;;805168;177;27022;-74
2024/01/25 02:53:10;;;;;;;95.17;12.03;;;8.20;98.50;;;;;;809806;175;26475;-73
2024/01/25 02:55:37;;;;;;;84.07;11.67;;;8.10;98.40;;;;;;808126;177;27010;-73
2024/01/25 02:58:04;;;;;;;63.33;9.93;;;8.10;98.60;;;;;;808893;177;26487;-73
2024/01/25 03:00:30;;;;;;;83.83;12.80;;;8.20;98.80;;;;;;808731;177;27091;-77
2024/01/25 03:02:57;;;;;;;80.70;12.17;;;8.30;98.20;;;;;;806007;177;26445;-77
2024/01/25 03:05:23;;;;;;;69.40;12.13;;;8.30;98.30;;;;;;808965;176;26492;-78
2024/01/25 03:07:50;;;;;;;88.27;11.70;;;8.20;98.40;;;;;;806958;176;26980;-77
2024/01/25 03:10:17;;;;;;;83.07;12.67;;;8.10;98.60;;;;;;807513;176;26438;-78
2024/01/25 03:12:43;;;;;;;78.03;11.97;;;8.10;98.80;;;;;;807981;176;26448;-77
2024/01/25 03:15:10;;;;;;;95.33;11.97;;;8.10;98.80;;;;;;810811;176;26516;-77
2024/01/25 03:17:37;;;;;;;77.20;10.40;;;8.10;98.80;;;;;;809332;176;26496;-77
2024/01/25 03:20:04;;;;;;;67.90;11.00;;;8.10;98.80;;;;;;807418;176;26458;-76
2024/01/25 03:22:30;;;;;;;90.97;16.43;;;8.10;98.80;;;;;;805085;177;26526;-77
2024/01/25 03:24:57;;;;;;;95.00;14.60;;;8.00;98.90;;;;;;808752;176;26440;-77
2024/01/25 03:27:23;;;;;;;77.27;11.73;;;8.00;99.00;;;;;;808220;173;26465;-77
2024/01/25 03:29:50;;;;;;;82.33;13.60;;;8.00;99.20;;;;;;808495;176;26436;-78
2024/01/25 03:32:17;;;;;;;79.10;13.80;;;8.00;99.10;;;;;;805090;176;26515;-77
2024/01/25 03:34:43;;;;;;;96.87;15.03;;;7.90;99.20;;;;;;807166;177;26462;-77
2024/01/25 03:37:10;;;;;;;83.87;11.20;;;7.90;99.40;;;;;;807050;176;27016;-78
2024/01/25 03:39:37;;;;;;;83.23;11.80;;;7.90;99.30;;;;;;806814;177;26466;-78
2024/01/25 03:42:03;;;;;;;89.80;12.63;;;7.90;99.40;;;;;;809177;177;26454;-78
2024/01/25 03:44:30;;;;;;;87.03;14.77;;;7.80;99.40;;;;;;808252;176;26435;-78
2024/01/25 03:46:56;;;;;;;99.93;12.47;;;7.90;99.60;;;;;;808913;176;26463;-78
2024/01/25 03:49:23;;;;;;;82.20;11.53;;;7.80;99.60;;;;;;806870;176;26467;-76
2024/01/25 03:51:50;;;;;;;87.10;11.73;;;7.70;99.80;;;;;;806206;174;27036;-78
2024/01/25 03:54:16;;;;;;;88.07;14.27;;;7.70;99.90;;;;;;806210;176;26433;-78
2024/01/25 03:56:43;;;;;;;89.33;12.17;;;7.70;99.90;;;;;;808243;175;27115;-77
2024/01/25 03:59:12;;;;;;;98.10;14.23;;;7.70;99.90;;;;;;808365;176;27007;-78
2024/01/25 04:01:36;;;;;;;86.00;10.90;;;7.60;99.90;;;;;;808794;176;26523;-76
2024/01/25 04:04:03;;;;;;;97.27;14.60;;;7.60;99.90;;;;;;807716;176;26437;-77
2024/01/25 04:06:29;;;;;;;99.83;12.33;;;7.60;99.90;;;;;;807302;176;26493;-78
2024/01/25 04:08:56;;;;;;;87.33;13.20;;;7.50;99.90;;;;;;806834;176;26487;-77
2024/01/25 04:11:23;;;;;;;95.00;12.67;;;7.50;99.90;;;;;;807821;175;26478;-78
2024/01/25 04:13:49;;;;;;;84.23;12.33;;;7.60;99.90;;;;;;807507;176;27056;-77
2024/01/25 04:16:16;;;;;;;93.03;12.30;;;7.60;99.90;;;;;;807052;177;26490;-78
2024/01/25 04:18:42;;;;;;;76.97;11.90;;;7.60;99.90;;;;;;808437;173;27001;-78
2024/01/25 04:21:09;;;;;;;103.37;14.03;;;7.50;99.90;;;;;;808130;176;26454;-78
2024/01/25 04:23:36;;;;;;;109.07;14.73;;;7.40;99.90;;;;;;809507;176;26466;-77
2024/01/25 04:26:02;;;;;;;91.77;13.90;;;7.40;99.90;;;;;;809198;175;26449;-78
2024/01/25 04:28:29;;;;;;;125.77;14.67;;;7.40;99.90;;;;;;810363;176;26510;-77
2024/01/25 04:30:55;;;;;;;74.13;14.77;;;7.40;99.90;;;;;;808697;177;26457;-77
2024/01/25 04:33:22;;;;;;;101.83;14.70;;;7.40;99.90;;;;;;806900;175;27075;-78
2024/01/25 04:35:49;;;;;;;115.60;18.40;;;7.30;99.90;;;;;;806682;177;27023;-76
2024/01/25 04:38:15;;;;;;;96.67;14.77;;;7.30;99.90;;;;;;809002;176;26453;-77
2024/01/25 04:40:42;;;;;;;104.30;14.30;;;7.40;99.90;;;;;;808275;174;26432;-77
2024/01/25 04:43:09;;;;;;;107.93;12.90;;;7.40;99.90;;;;;;808517;176;26448;-79
2024/01/25 04:45:35;;;;;;;91.93;13.93;;;7.40;99.90;;;;;;808024;176;26463;-77
2024/01/25 04:48:03;;;;;;;97.03;14.63;;;7.30;99.90;;;;;;810025;177;26438;-78
2024/01/25 04:50:30;;;;;;;105.43;14.43;;;7.30;99.90;;;;;;809016;177;26456;-77
2024/01/25 04:52:56;;;;;;;98.50;12.40;;;7.30;99.90;;;;;;808062;175;26483;-78
2024/01/25 04:55:23;;;;;;;81.27;11.80;;;7.30;99.90;;;;;;806612;177;26465;-77
2024/01/25 04:57:53;;;;;;;116.40;17.80;;;7.30;99.90;;;;;;809064;176;26441;-77
2024/01/25 05:00:17;;;;;;;90.37;11.47;;;7.30;99.90;;;;;;809402;176;26509;-77
2024/01/25 05:02:44;;;;;;;82.33;12.70;;;7.30;99.90;;;;;;808299;175;26522;-78
2024/01/25 05:05:10;;;;;;;76.73;12.10;;;7.30;99.90;;;;;;807890;173;26466;-79
2024/01/25 05:07:37;;;;;;;79.37;11.73;;;7.30;99.90;;;;;;810474;175;26438;-78
2024/01/25 05:10:03;;;;;;;98.37;13.77;;;7.20;99.90;;;;;;812394;175;26488;-78
2024/01/25 05:12:30;;;;;;;114.10;14.90;;;7.20;99.90;;;;;;809029;175;26465;-78
2024/01/25 05:14:57;;;;;;;97.07;13.00;;;7.20;99.90;;;;;;809380;176;26454;-78
2024/01/25 05:17:23;;;;;;;88.10;12.90;;;7.20;99.90;;;;;;809963;176;26424;-77
2024/01/25 05:19:50;;;;;;;91.43;12.53;;;7.10;99.90;;;;;;807484;176;26462;-78
2024/01/25 05:22:16;;;;;;;99.87;13.87;;;7.10;99.90;;;;;;809286;174;26466;-77
2024/01/25 05:24:43;;;;;;;85.27;12.67;;;7.10;99.90;;;;;;809603;176;26545;-77
2024/01/25 05:27:10;;;;;;;98.70;12.30;;;7.00;99.90;;;;;;807545;176;26449;-77
2024/01/25 05:29:36;;;;;;;99.80;12.73;;;7.00;99.90;;;;;;807278;176;26468;-77
2024/01/25 05:32:04;;;;;;;90.30;12.53;;;7.00;99.90;;;;;;810176;174;26452;-78
2024/01/25 05:34:30;;;;;;;105.67;12.83;;;7.00;99.90;;;;;;809005;176;26462;-78
2024/01/25 05:36:57;;;;;;;101.77;12.63;;;7.00;99.90;;;;;;806671;176;26425;-77
2024/01/25 05:39:23;;;;;;;77.07;12.27;;;7.00;99.90;;;;;;809108;176;26455;-76
2024/01/25 05:41:50;;;;;;;88.93;14.10;;;6.90;99.90;;;;;;809070;176;26440;-77
2024/01/25 05:44:16;;;;;;;95.13;12.00;;;7.00;99.90;;;;;;806001;175;27000;-77
2024/01/25 05:46:44;;;;;;;85.40;13.50;;;7.00;99.90;;;;;;808724;175;26437;-77
2024/01/25 05:49:10;;;;;;;88.73;12.83;;;6.90;99.90;;;;;;808180;174;26455;-78
2024/01/25 05:51:37;;;;;;;111.67;13.37;;;6.90;99.90;;;;;;808428;175;26464;-78
2024/01/25 05:54:04;;;;;;;96.33;12.70;;;6.90;99.90;;;;;;807624;177;26705;-78
2024/01/25 05:56:30;;;;;;;81.97;11.93;;;6.90;99.90;;;;;;807120;176;26453;-77
2024/01/25 05:58:57;;;;;;;85.43;13.37;;;6.80;99.90;;;;;;811326;176;26458;-77
2024/01/25 06:01:23;;;;;;;81.97;13.03;;;6.80;99.90;;;;;;811464;174;27018;-77
2024/01/25 06:03:50;;;;;;;101.93;11.40;;;6.90;99.90;;;;;;806196;176;26453;-77
2024/01/25 06:06:17;;;;;;;74.50;11.50;;;6.80;99.90;;;;;;806868;177;26983;-78
2024/01/25 06:08:43;;;;;;;90.47;12.37;;;6.90;99.90;;;;;;807342;177;26475;-78
2024/01/25 06:11:11;;;;;;;88.50;12.20;;;6.90;99.90;;;;;;806214;176;26478;-78
2024/01/25 06:13:36;;;;;;;96.17;12.73;;;6.80;99.90;;;;;;807088;176;26978;-77
2024/01/25 06:16:03;;;;;;;88.17;13.50;;;6.70;99.90;;;;;;806708;176;26464;-78
2024/01/25 06:18:30;;;;;;;92.77;14.00;;;6.70;99.90;;;;;;810463;175;26441;-78
2024/01/25 06:20:56;;;;;;;112.13;14.87;;;6.70;99.90;;;;;;809631;176;26456;-77
2024/01/25 06:23:23;;;;;;;96.50;12.50;;;6.70;99.90;;;;;;812522;176;26440;-77
2024/01/25 06:25:49;;;;;;;110.60;13.13;;;6.70;99.90;;;;;;809912;177;26454;-78
2024/01/25 06:28:16;;;;;;;85.10;11.67;;;6.70;99.90;;;;;;808331;177;26438;-77
2024/01/25 06:30:43;;;;;;;89.23;13.00;;;6.70;99.90;;;;;;809759;176;27058;-77
2024/01/25 06:33:09;;;;;;;96.03;11.87;;;6.60;99.90;;;;;;812534;177;26501;-78
2024/01/25 06:35:36;;;;;;;90.83;13.60;;;6.60;99.90;;;;;;811462;173;26464;-77
2024/01/25 06:38:02;;;;;;;90.40;13.60;;;6.60;99.90;;;;;;808800;177;26429;-77
2024/01/25 06:40:29;;;;;;;85.90;12.40;;;6.70;99.90;;;;;;809636;177;26440;-75
2024/01/25 06:42:56;;;;;;;91.83;13.33;;;6.60;99.90;;;;;;807356;175;26440;-78
2024/01/25 06:45:22;;;;;;;66.83;10.70;;;6.60;99.90;;;;;;808194;176;26460;-78
2024/01/25 06:47:49;;;;;;;107.57;12.27;;;6.60;99.90;;;;;;808320;176;27241;-78
2024/01/25 06:50:15;;;;;;;93.43;13.67;;;6.60;99.90;;;;;;810822;173;26440;-78
2024/01/25 06:52:42;;;;;;;102.13;14.03;;;6.60;99.90;;;;;;808363;176;26444;-77
2024/01/25 06:55:09;;;;;;;96.60;13.73;;;6.50;99.90;;;;;;808223;177;26587;-78
2024/01/25 06:57:36;;;;;;;93.13;13.23;;;6.50;99.90;;;;;;806927;177;26504;-78
2024/01/25 07:00:04;;;;;;;78.40;11.20;;;6.50;99.90;;;;;;808278;176;27010;-78
2024/01/25 07:02:32;;;;;;;101.00;12.23;;;6.60;99.90;;;;;;807704;176;26461;-78
2024/01/25 07:05:01;;;;;;;103.60;12.87;;;6.60;99.90;;;;;;807957;176;26441;-79
2024/01/25 07:07:25;;;;;;;93.90;14.17;;;6.50;99.90;;;;;;806471;177;26421;-76
2024/01/25 07:09:52;;;;;;;78.40;12.23;;;6.50;99.90;;;;;;808499;176;26959;-76
2024/01/25 07:12:19;;;;;;;106.13;14.23;;;6.50;99.90;;;;;;806459;174;26492;-77
2024/01/25 07:14:45;;;;;;;83.30;13.27;;;6.50;99.90;;;;;;808163;176;26447;-77
2024/01/25 07:17:12;;;;;;;94.73;12.77;;;6.60;99.90;;;;;;809778;177;26409;-77
2024/01/25 07:19:39;;;;;;;98.90;13.83;;;6.60;99.90;;;;;;808988;176;26428;-76
2024/01/25 07:22:05;;;;;;;104.00;14.77;;;6.60;99.90;;;;;;797775;177;27020;-77
2024/01/25 07:24:32;;;;;;;109.07;14.03;;;6.60;99.90;;;;;;808463;176;26461;-72
2024/01/25 07:26:58;;;;;;;95.17;14.97;;;6.70;99.90;;;;;;807557;176;26425;-74
2024/01/25 07:29:25;;;;;;;94.03;13.73;;;7.00;99.90;;;;;;806513;177;26428;-74
2024/01/25 07:31:51;;;;;;;96.67;13.33;;;7.00;99.90;;;;;;809327;175;26480;-78
2024/01/25 07:34:18;;;;;;;92.77;13.30;;;7.10;99.90;;;;;;808446;177;26441;-78
2024/01/25 07:36:45;;;;;;;85.03;12.17;;;6.90;99.90;;;;;;809810;174;26477;-79
2024/01/25 07:39:11;;;;;;;101.23;16.10;;;6.80;99.90;;;;;;796672;179;26480;-78
2024/01/25 07:44:21;;;;;;;89.03;14.73;;;6.60;99.90;;;;;;796276;175;26472;-76
2024/01/25 07:46:47;;;;;;;109.13;17.30;;;6.60;99.90;;;;;;797520;180;26993;-79
2024/01/25 07:49:14;;;;;;;85.70;12.83;;;6.60;99.90;;;;;;799741;180;26439;-80
2024/01/25 07:51:40;;;;;;;94.03;17.43;;;6.60;99.90;;;;;;799785;180;26520;-78
2024/01/25 07:54:07;;;;;;;96.27;12.73;;;6.60;99.90;;;;;;789215;179;26453;-79
2024/01/25 07:56:34;;;;;;;96.63;13.90;;;6.70;99.90;;;;;;772036;184;26511;-77
2024/01/25 07:59:01;;;;;;;115.03;15.70;;;6.70;99.90;;;;;;795239;177;26456;-80
2024/01/25 08:01:27;;;;;;;97.13;14.60;;;6.70;99.90;;;;;;797597;176;26458;-75
2024/01/25 08:03:53;;;;;;;104.07;15.20;;;6.70;99.90;;;;;;803135;179;26709;-79
2024/01/25 08:06:20;;;;;;;128.83;16.23;;;6.70;99.90;;;;;;792942;178;26430;-83
2024/01/25 08:08:47;;;;;;;118.33;15.97;;;6.80;99.90;;;;;;788698;177;26605;-80
2024/01/25 08:11:13;;;;;;;104.67;15.73;;;6.80;99.90;;;;;;794995;177;26445;-80
2024/01/25 08:13:40;;;;;;;122.03;19.57;;;6.90;99.90;;;;;;790905;177;26436;-77
2024/01/25 08:16:07;;;;;;;87.87;16.23;;;6.90;99.90;;;;;;794423;177;28067;-79
2024/01/25 08:18:33;;;;;;;93.50;16.17;;;6.90;99.90;;;;;;791150;177;26450;-78
2024/01/25 08:21:00;;;;;;;108.13;17.00;;;7.00;99.90;;;;;;795605;177;26506;-80
2024/01/25 08:23:27;;;;;;;95.33;17.53;;;7.10;99.90;;;;;;795276;176;26475;-81
2024/01/25 08:25:53;;;;;;;80.90;16.30;;;7.20;99.90;;;;;;806059;177;26454;-80
2024/01/25 08:28:21;;;;;;;94.63;16.73;;;7.20;99.90;;;;;;803214;177;26445;-81
2024/01/25 08:30:46;;;;;;;102.67;16.57;;;7.30;99.90;;;;;;789516;178;26430;-80
2024/01/25 08:33:13;;;;;;;116.60;19.73;;;7.40;99.90;;;;;;774882;179;26582;-80
2024/01/25 08:35:40;;;;;;;98.37;16.97;;;7.40;99.90;;;;;;790278;177;26433;-80
2024/01/25 08:38:06;;;;;;;96.30;17.03;;;7.50;99.90;;;;;;794770;177;26441;-81
2024/01/25 08:40:33;;;;;;;89.50;16.20;;;7.50;99.90;;;;;;797557;177;26449;-79
2024/01/25 08:43:00;;;;;;;91.60;17.07;;;7.50;99.90;;;;;;803047;176;26444;-79
2024/01/25 08:45:26;;;;;;;90.27;16.83;;;7.60;99.90;;;;;;796259;176;26494;-80
2024/01/25 08:47:53;;;;;;;114.00;21.17;;;7.60;99.90;;;;;;799116;176;26453;-80
2024/01/25 08:50:19;;;;;;;99.50;19.73;;;7.70;99.90;;;;;;795200;176;26460;-79
2024/01/25 08:52:46;;;;;;;105.43;19.77;;;7.70;99.90;;;;;;792924;176;26441;-79
2024/01/25 08:55:13;;;;;;;89.83;18.90;;;7.70;99.90;;;;;;797621;178;27016;-78
2024/01/25 08:57:40;;;;;;;86.87;19.23;;;7.80;99.70;;;;;;799739;178;26444;-81
2024/01/25 09:00:10;;;;;;;109.70;19.07;;;7.80;99.40;;;;;;798956;176;26404;-80
2024/01/25 09:02:33;;;;;;;98.57;20.67;;;7.90;99.60;;;;;;792461;177;26573;-79
2024/01/25 09:05:00;;;;;;;91.93;20.03;;;8.00;99.30;;;;;;803108;177;26436;-78
2024/01/25 09:07:27;;;;;;;87.27;21.77;;;8.20;99.10;;;;;;794461;176;26435;-75
2024/01/25 09:09:53;;;;;;;91.87;19.23;;;8.20;98.90;;;;;;804798;176;26457;-81
2024/01/25 09:12:20;;;;;;;89.97;20.97;;;8.30;98.70;;;;;;791613;176;26434;-83
2024/01/25 09:14:46;;;;;;;101.03;21.50;;;8.40;98.00;;;;;;795151;176;27026;-79
2024/01/25 09:17:15;;;;;;;88.60;22.10;;;8.40;97.90;;;;;;797915;176;26473;-79
2024/01/25 09:19:41;;;;;;;90.47;20.60;;;8.40;97.90;;;;;;798066;177;26431;-75
2024/01/25 09:22:09;;;;;;;93.27;20.20;;;8.50;97.60;;;;;;788456;177;26437;-79
2024/01/25 09:24:36;;;;;;;75.07;20.77;;;8.50;97.60;;;;;;794704;177;26597;-78
2024/01/25 09:27:02;;;;;;;98.57;19.97;;;8.50;97.20;;;;;;792204;177;26449;-79
2024/01/25 09:29:28;;;;;;;88.10;18.77;;;8.40;97.30;;;;;;794062;176;27028;-79
2024/01/25 09:31:55;;;;;;;88.27;18.43;;;8.30;97.30;;;;;;794108;176;26477;-79
2024/01/25 09:34:22;;;;;;;103.47;20.27;;;8.40;97.60;;;;;;794308;177;26526;-81
2024/01/25 09:36:48;;;;;;;106.30;20.80;;;8.50;97.00;;;;;;792978;176;26521;-76
2024/01/25 09:39:15;;;;;;;81.20;17.70;;;8.60;96.80;;;;;;793562;176;28112;-78
2024/01/25 09:41:42;;;;;;;93.60;20.83;;;8.70;96.60;;;;;;793617;176;26457;-79
2024/01/25 09:44:09;;;;;;;86.87;17.53;;;8.90;97.00;;;;;;793951;176;26501;-79
2024/01/25 09:46:35;;;;;;;84.63;19.83;;;9.00;95.90;;;;;;793297;176;26448;-79
2024/01/25 09:49:03;;;;;;;91.00;19.17;;;9.00;95.50;;;;;;794246;176;26437;-82
2024/01/25 09:51:31;;;;;;;98.60;21.07;;;9.00;95.20;;;;;;794157;176;26454;-81
2024/01/25 09:53:58;;;;;;;89.17;18.93;;;8.90;95.50;;;;;;795953;175;26449;-81
2024/01/25 09:56:24;;;;;;;83.90;20.03;;;9.10;95.70;;;;;;797724;176;26448;-80
2024/01/25 09:58:51;;;;;;;86.83;19.87;;;9.20;95.20;;;;;;796351;176;26455;-81
2024/01/25 10:01:18;;;;;;;84.23;19.87;;;9.30;95.30;;;;;;795458;176;26996;-78
2024/01/25 10:03:44;;;;;;;79.30;20.53;;;9.20;94.60;;;;;;795923;176;26528;-81
2024/01/25 10:06:12;;;;;;;102.23;26.40;;;9.20;94.50;;;;;;795154;176;27034;-80
2024/01/25 10:08:38;;;;;;;95.13;27.50;;;9.20;94.70;;;;;;795848;176;26466;-80
2024/01/25 10:11:05;;;;;;;99.73;27.77;;;9.20;94.70;;;;;;793697;176;27144;-79
2024/01/25 10:13:32;;;;;;;110.70;27.13;;;9.20;95.40;;;;;;794601;176;26478;-77
2024/01/25 10:15:58;;;;;;;103.53;24.00;;;9.40;95.10;;;;;;800996;176;27063;-80
2024/01/25 10:18:27;;;;;;;91.50;22.70;;;9.50;94.40;;;;;;794200;178;26475;-81
2024/01/25 10:20:54;;;;;;;89.97;19.70;;;9.60;94.00;;;;;;789979;179;26441;-79
2024/01/25 10:23:22;;;;;;;72.03;19.47;;;9.70;94.50;;;;;;793956;178;26437;-80
2024/01/25 10:25:47;;;;;;;73.97;18.87;;;9.70;93.50;;;;;;794924;177;26435;-77
2024/01/25 10:28:14;;;;;;;81.30;19.00;;;9.90;93.70;;;;;;797851;177;26428;-78
2024/01/25 10:30:40;;;;;;;81.27;19.00;;;10.00;92.70;;;;;;792669;178;26932;-81
2024/01/25 10:33:07;;;;;;;84.90;19.37;;;10.20;92.60;;;;;;794415;177;26481;-78
2024/01/25 10:35:34;;;;;;;68.40;18.13;;;10.40;92.00;;;;;;808792;176;26431;-80
2024/01/25 10:38:00;;;;;;;84.03;22.47;;;10.40;91.30;;;;;;809253;177;26423;-79
2024/01/25 10:40:27;;;;;;;172.23;54.83;;;10.30;91.30;;;;;;803881;178;26436;-79
2024/01/25 10:42:53;;;;;;;83.53;23.50;;;10.40;91.10;;;;;;800711;177;26457;-81
2024/01/25 10:45:20;;;;;;;92.93;24.97;;;10.40;90.70;;;;;;793404;177;26459;-79
2024/01/25 10:47:49;;;;;;;98.37;26.37;;;10.40;91.00;;;;;;792904;177;27017;-79
2024/01/25 10:50:15;;;;;;;74.90;19.37;;;10.50;90.90;;;;;;795029;180;26422;-76
2024/01/25 10:52:42;;;;;;;80.60;20.30;;;10.60;90.20;;;;;;795439;180;26464;-80
2024/01/25 10:55:08;;;;;;;67.03;17.50;;;10.80;90.00;;;;;;796642;177;26431;-83
2024/01/25 10:57:37;;;;;;;69.10;19.67;;;11.30;88.30;;;;;;800552;178;26430;-81
2024/01/25 11:00:07;;;;;;;66.73;16.63;;;11.70;86.70;;;;;;796609;173;26417;-78
2024/01/25 11:02:34;;;;;;;77.77;20.83;;;12.30;83.30;;;;;;797249;176;26455;-79
2024/01/25 11:05:03;;;;;;;72.17;17.13;;;12.20;81.50;;;;;;798710;173;26442;-83
2024/01/25 11:07:28;;;;;;;119.27;33.67;;;12.30;81.10;;;;;;791445;178;26449;-81
2024/01/25 11:09:54;;;;;;;66.93;17.40;;;12.30;80.60;;;;;;790028;177;26450;-79
2024/01/25 11:12:21;;;;;;;99.50;24.67;;;12.20;80.20;;;;;;788952;180;26518;-81
2024/01/25 11:14:55;;;;;;;82.23;24.53;;;12.40;83.00;;;;;;801124;176;26449;-81
2024/01/25 11:17:23;;;;;;;172.00;48.60;;;13.10;78.90;;;;;;803071;176;27231;-79
2024/01/25 11:19:50;;;;;;;112.53;30.80;;;13.30;75.90;;;;;;798296;177;26966;-79
2024/01/25 11:22:16;;;;;;;83.93;23.20;;;13.00;78.40;;;;;;790057;177;26445;-80
2024/01/25 11:24:42;;;;;;;78.83;21.20;;;13.50;77.00;;;;;;804052;178;26460;-79
2024/01/25 11:27:09;;;;;;;67.50;18.23;;;14.00;75.00;;;;;;805480;177;26966;-77
2024/01/25 11:29:36;;;;;;;81.37;19.77;;;14.00;72.50;;;;;;789794;178;26424;-76
2024/01/25 11:32:02;;;;;;;64.20;14.40;;;14.20;73.90;;;;;;791244;177;26452;-79
2024/01/25 11:34:30;;;;;;;76.63;17.70;;;14.50;70.80;;;;;;803005;177;26449;-79
2024/01/25 11:36:57;;;;;;;63.50;16.93;;;14.70;71.50;;;;;;806086;176;28051;-78
2024/01/25 11:39:22;;;;;;;66.50;16.00;;;15.00;69.10;;;;;;791806;179;26453;-77
2024/01/25 11:41:50;;;;;;;70.90;17.00;;;15.00;68.40;;;;;;794189;177;27060;-81
2024/01/25 11:44:16;;;;;;;75.57;19.53;;;14.90;68.40;;;;;;798026;177;26476;-80
2024/01/25 11:46:44;;;;;;;66.43;15.83;;;14.70;69.40;;;;;;796493;177;26440;-75
2024/01/25 11:49:10;;;;;;;70.50;16.77;;;14.40;67.80;;;;;;795329;177;26434;-80
2024/01/25 11:51:37;;;;;;;69.17;14.10;;;13.60;70.70;;;;;;798110;176;26554;-78
2024/01/25 11:54:06;;;;;;;65.80;14.10;;;13.40;71.10;;;;;;794282;177;26491;-81
2024/01/25 11:56:31;;;;;;;71.17;16.47;;;13.40;75.10;;;;;;793748;176;26528;-81
2024/01/25 11:58:57;;;;;;;78.73;24.27;;;14.30;71.80;;;;;;802140;178;26453;-80
2024/01/25 12:01:25;;;;;;;134.20;40.43;;;14.80;69.90;;;;;;796497;177;28077;-79
2024/01/25 12:03:51;;;;;;;104.17;30.83;;;15.20;67.00;;;;;;792019;177;26452;-82
2024/01/25 12:06:18;;;;;;;99.57;29.67;;;14.80;67.00;;;;;;792400;177;26425;-81
2024/01/25 12:08:46;;;;;;;69.73;15.67;;;14.50;67.10;;;;;;796805;178;27021;-79
2024/01/25 12:11:12;;;;;;;74.80;22.07;;;14.20;68.90;;;;;;803059;178;26436;-76
2024/01/25 12:13:39;;;;;;;96.03;29.03;;;14.40;71.10;;;;;;803516;175;26454;-80
2024/01/25 12:16:06;;;;;;;62.57;15.27;;;14.80;68.00;;;;;;804046;179;26463;-81
2024/01/25 12:18:33;;;;;;;91.27;23.80;;;14.70;64.90;;;;;;799892;177;26451;-81
2024/01/25 12:21:00;;;;;;;61.53;15.57;;;14.10;65.70;;;;;;797867;177;26421;-79
2024/01/25 12:23:33;;;;;;;103.80;32.73;;;13.70;66.70;;;;;;801157;177;26450;-82
2024/01/25 12:26:04;;;;;;;157.13;52.73;;;13.40;68.60;;;;;;789869;182;26412;-80
2024/01/25 12:28:31;;;;;;;83.63;22.43;;;13.00;68.90;;;;;;798556;178;26420;-81
2024/01/25 12:30:57;;;;;;;63.27;17.83;;;13.30;69.20;;;;;;791687;177;26410;-79
2024/01/25 12:33:24;;;;;;;147.23;40.03;;;13.20;68.40;;;;;;789781;182;26469;-80